Time;durP1;ratioP1;P1;durP2;ratioP2;P2;SDS_P1;SDS_P2;PMS_P1;PMS_P2;Temp;Humidity;BMP_temperature;BMP_pressure;BME280_temperature;BME280_humidity;BME280_pressure;Samples;Min_cycle;Max_cycle;Signal;HPM_P1;HPM_P2
2023/01/10 00:00:36;;;;;;;0.80;0.30;;;;;;;5.06;100.00;97763.78;5033234;28;20217;-72
2023/01/10 00:03:08;;;;;;;0.40;0.40;;;;;;;5.08;100.00;97769.69;5033135;28;20321;-72
2023/01/10 00:05:39;;;;;;;0.60;0.40;;;;;;;5.06;100.00;97774.34;5033150;28;20206;-72
2023/01/10 00:08:06;;;;;;;0.40;0.40;;;;;;;5.06;100.00;97767.22;5033618;28;20542;-72
2023/01/10 00:10:33;;;;;;;0.73;0.60;;;;;;;5.10;100.00;97768.47;5033518;28;20210;-72
2023/01/10 00:15:44;;;;;;;0.40;0.40;;;;;;;5.13;100.00;97788.34;5035992;28;20223;-72
2023/01/10 00:18:11;;;;;;;0.60;0.50;;;;;;;5.11;100.00;97791.19;5037509;28;20575;-72
2023/01/10 00:20:37;;;;;;;0.63;0.63;;;;;;;5.05;100.00;97788.50;5036458;28;20662;-72
2023/01/10 00:23:04;;;;;;;0.60;0.53;;;;;;;5.10;100.00;97794.00;5036288;28;20237;-72
2023/01/10 00:25:32;;;;;;;0.53;0.50;;;;;;;5.11;100.00;97796.44;5036359;28;20214;-72
2023/01/10 00:28:03;;;;;;;1.17;0.57;;;;;;;5.14;100.00;97808.41;5036559;28;20202;-72
2023/01/10 00:30:32;;;;;;;1.43;0.67;;;;;;;5.16;100.00;97803.78;5036498;28;20194;-72
2023/01/10 00:33:00;;;;;;;0.50;0.50;;;;;;;5.15;100.00;97802.97;5036260;28;20317;-72
2023/01/10 00:35:27;;;;;;;0.90;0.63;;;;;;;5.17;100.00;97811.50;5036282;28;20300;-72
2023/01/10 00:38:00;;;;;;;1.13;0.70;;;;;;;5.16;100.00;97809.06;5036194;28;20238;-72
2023/01/10 00:40:27;;;;;;;1.07;0.50;;;;;;;5.19;100.00;97817.41;5036197;28;20186;-72
2023/01/10 00:45:37;;;;;;;0.87;0.80;;;;;;;5.17;100.00;97822.06;5035918;28;20173;-72
2023/01/10 00:48:03;;;;;;;0.70;0.70;;;;;;;5.21;100.00;97825.13;5035657;28;20206;-73
2023/01/10 00:50:30;;;;;;;1.00;0.73;;;;;;;5.15;100.00;97839.06;5036178;28;20301;-72
2023/01/10 00:52:56;;;;;;;0.83;0.80;;;;;;;5.20;100.00;97847.22;5036043;28;20229;-72
2023/01/10 00:55:22;;;;;;;0.80;0.80;;;;;;;5.23;100.00;97844.16;5035790;28;20676;-72
2023/01/10 00:57:49;;;;;;;0.73;0.73;;;;;;;5.25;100.00;97845.59;5035972;28;20256;-72
2023/01/10 01:00:15;;;;;;;2.67;0.90;;;;;;;5.25;100.00;97845.59;5035701;28;20209;-73
2023/01/10 01:02:42;;;;;;;3.50;1.10;;;;;;;5.23;100.00;97852.06;5036473;28;20225;-72
2023/01/10 01:05:08;;;;;;;1.80;1.10;;;;;;;5.28;100.00;97862.84;5035872;28;20213;-73
2023/01/10 01:07:35;;;;;;;1.27;0.87;;;;;;;5.23;100.00;97863.44;5035890;28;20225;-73
2023/01/10 01:12:45;;;;;;;0.80;0.80;;;;;;;5.25;100.00;97879.06;5035392;28;20224;-72
2023/01/10 01:15:11;;;;;;;1.90;1.10;;;;;;;5.27;100.00;97884.97;5035654;28;20213;-73
2023/01/10 01:17:38;;;;;;;2.30;1.10;;;;;;;5.19;100.00;97883.28;5035601;28;20222;-72
2023/01/10 01:20:05;;;;;;;1.43;0.90;;;;;;;5.28;100.00;97897.94;5035632;28;20209;-72
2023/01/10 01:22:31;;;;;;;0.90;0.90;;;;;;;5.32;100.00;97893.94;5035255;28;20720;-72
2023/01/10 01:24:58;;;;;;;1.90;1.10;;;;;;;5.32;100.00;97906.28;5035318;28;20220;-72
2023/01/10 01:27:24;;;;;;;1.07;0.87;;;;;;;5.39;100.00;97904.53;5035469;28;20202;-73
2023/01/10 01:29:50;;;;;;;1.53;1.00;;;;;;;5.37;100.00;97914.44;5035427;28;20212;-72
2023/01/10 01:32:17;;;;;;;0.83;0.63;;;;;;;5.39;100.00;97915.06;5035287;28;20233;-72
2023/01/10 01:34:44;;;;;;;1.07;0.87;;;;;;;5.40;100.00;97921.97;5035353;28;20214;-72
2023/01/10 01:37:10;;;;;;;0.70;0.70;;;;;;;5.35;100.00;97913.81;5034959;28;20206;-72
2023/01/10 01:39:37;;;;;;;1.50;0.80;;;;;;;5.34;100.00;97917.47;5035184;28;20573;-72
2023/01/10 01:42:05;;;;;;;0.70;0.70;;;;;;;5.36;100.00;97929.47;5035166;28;20598;-72
2023/01/10 01:44:33;;;;;;;1.17;0.80;;;;;;;5.37;100.00;97944.25;5035174;28;20210;-72
2023/01/10 01:47:23;;;;;;;2.23;0.70;;;;;;;5.32;100.00;97946.66;5035136;28;20228;-73
2023/01/10 01:49:50;;;;;;;1.40;0.70;;;;;;;5.38;100.00;97955.63;5035128;28;20202;-73
2023/01/10 01:52:28;;;;;;;0.60;0.60;;;;;;;5.38;100.00;97966.97;5034965;28;20234;-73
2023/01/10 01:54:58;;;;;;;0.83;0.53;;;;;;;5.42;100.00;97973.50;5033860;28;20190;-73
2023/01/10 01:57:29;;;;;;;0.60;0.60;;;;;;;5.45;100.00;97974.94;5033678;28;20569;-73
2023/01/10 01:59:56;;;;;;;0.60;0.60;;;;;;;5.37;100.00;97973.25;5034611;28;20190;-72
2023/01/10 02:02:31;;;;;;;0.93;0.47;;;;;;;5.36;100.00;97973.44;5034408;28;20596;-72
2023/01/10 02:04:59;;;;;;;0.97;0.50;;;;;;;5.42;100.00;97983.25;5034861;28;20216;-73
2023/01/10 02:07:31;;;;;;;0.60;0.50;;;;;;;5.38;100.00;97977.53;5034383;28;20680;-73
2023/01/10 02:10:03;;;;;;;0.80;0.70;;;;;;;5.30;100.00;97982.91;5033573;28;20186;-73
2023/01/10 02:12:32;;;;;;;1.00;0.60;;;;;;;5.29;100.00;98004.19;5034218;28;20713;-72
2023/01/10 02:14:59;;;;;;;0.87;0.60;;;;;;;5.30;100.00;98003.19;5033471;28;20206;-73
2023/01/10 02:17:25;;;;;;;1.27;0.67;;;;;;;5.27;100.00;98000.91;5032996;28;20669;-72
2023/01/10 02:20:08;;;;;;;0.87;0.80;;;;;;;5.16;100.00;98027.78;5034502;28;20579;-72
2023/01/10 02:23:05;;;;;;;0.87;0.60;;;;;;;5.05;100.00;98028.22;5034430;28;20590;-73
2023/01/10 02:25:59;;;;;;;1.63;0.70;;;;;;;4.95;100.00;98032.97;5034390;28;20202;-72
2023/01/10 02:28:50;;;;;;;2.53;0.93;;;;;;;4.96;100.00;98038.06;5034348;28;20206;-72
2023/01/10 02:31:39;;;;;;;0.70;0.70;;;;;;;4.94;100.00;98041.88;5034240;28;20256;-73
2023/01/10 02:34:20;;;;;;;1.70;0.90;;;;;;;4.82;100.00;98053.88;5033921;28;20637;-73
2023/01/10 02:36:49;;;;;;;1.17;0.90;;;;;;;4.79;100.00;98062.16;5033839;28;20190;-73
2023/01/10 02:39:32;;;;;;;1.83;1.00;;;;;;;4.79;100.00;98060.34;5033960;28;20245;-73
2023/01/10 02:42:13;;;;;;;1.90;1.00;;;;;;;4.81;100.00;98063.63;5033047;28;20233;-72
2023/01/10 02:44:50;;;;;;;0.93;0.93;;;;;;;4.78;100.00;98071.03;5032925;28;20534;-72
2023/01/10 02:47:16;;;;;;;1.03;1.00;;;;;;;4.80;100.00;98074.34;5034108;28;20194;-73
2023/01/10 02:49:48;;;;;;;2.67;1.57;;;;;;;4.70;100.00;98071.97;5034825;28;20209;-72
2023/01/10 02:52:21;;;;;;;1.57;1.13;;;;;;;4.75;100.00;98081.97;5033652;28;20236;-72
2023/01/10 02:54:49;;;;;;;0.93;0.93;;;;;;;4.73;100.00;98076.03;5032513;28;20633;-72
2023/01/10 02:57:32;;;;;;;0.90;0.80;;;;;;;4.73;100.00;98081.31;5033873;28;20239;-73
2023/01/10 03:00:07;;;;;;;1.70;0.97;;;;;;;4.60;100.00;98076.69;5033891;28;20190;-73
2023/01/10 03:02:48;;;;;;;1.10;1.00;;;;;;;4.55;100.00;98084.31;5032657;28;20313;-72
2023/01/10 03:05:37;;;;;;;1.57;1.20;;;;;;;4.55;100.00;98105.38;5033738;28;20194;-73
2023/01/10 03:08:33;;;;;;;1.53;1.00;;;;;;;4.56;100.00;98101.72;5033784;28;20208;-72
2023/01/10 03:11:02;;;;;;;1.77;1.30;;;;;;;4.60;100.00;98108.28;5020594;28;20202;-72
2023/01/10 03:13:42;;;;;;;1.80;1.20;;;;;;;4.60;100.00;98115.34;5033418;28;20186;-73
2023/01/10 03:16:15;;;;;;;1.43;1.20;;;;;;;4.65;100.00;98118.28;5033631;28;20205;-72
2023/01/10 03:18:51;;;;;;;3.83;1.40;;;;;;;4.65;100.00;98124.34;5033590;28;20572;-72
2023/01/10 03:21:20;;;;;;;1.63;1.40;;;;;;;4.67;100.00;98125.00;5033873;28;20226;-72
2023/01/10 03:23:49;;;;;;;6.73;1.60;;;;;;;4.66;100.00;98135.72;5033574;28;20206;-72
2023/01/10 03:26:21;;;;;;;2.30;1.57;;;;;;;4.67;100.00;98135.53;5032375;28;20216;-72
2023/01/10 03:28:55;;;;;;;4.00;1.40;;;;;;;4.68;100.00;98139.81;5033488;28;20197;-72
2023/01/10 03:31:29;;;;;;;3.63;2.03;;;;;;;4.62;100.00;98158.13;5033474;28;20236;-72
2023/01/10 03:33:56;;;;;;;2.83;1.50;;;;;;;4.65;100.00;98171.75;5033517;28;20197;-72
2023/01/10 03:36:30;;;;;;;1.97;1.43;;;;;;;4.66;100.00;98176.00;5033473;28;20224;-72
2023/01/10 03:39:05;;;;;;;3.17;1.63;;;;;;;4.67;100.00;98177.66;5033327;28;20253;-73
2023/01/10 03:41:34;;;;;;;4.47;1.87;;;;;;;4.66;100.00;98180.47;5033336;28;20696;-73
2023/01/10 03:44:42;;;;;;;3.70;1.50;;;;;;;4.68;100.00;98186.38;5033294;28;20229;-72
2023/01/10 03:47:28;;;;;;;2.47;1.50;;;;;;;4.76;100.00;98195.03;5033211;28;20232;-72
2023/01/10 03:50:00;;;;;;;4.83;1.57;;;;;;;4.77;100.00;98190.56;5034429;28;20657;-72
2023/01/10 03:52:27;;;;;;;4.40;1.70;;;;;;;4.71;100.00;98194.72;5035508;28;20260;-72
2023/01/10 03:54:53;;;;;;;5.60;2.03;;;;;;;4.72;100.00;98196.38;5037157;28;20297;-72
2023/01/10 03:57:22;;;;;;;3.47;1.60;;;;;;;4.71;100.00;98199.19;5036800;28;20205;-72
2023/01/10 03:59:52;;;;;;;6.13;1.60;;;;;;;4.73;100.00;98210.34;5036604;28;20594;-72
2023/01/10 04:02:19;;;;;;;1.60;1.50;;;;;;;4.71;100.00;98205.25;5036326;28;20234;-73
2023/01/10 04:04:45;;;;;;;1.70;1.60;;;;;;;4.70;100.00;98210.72;5036853;28;20213;-72
2023/01/10 04:07:11;;;;;;;3.20;1.30;;;;;;;4.68;100.00;98215.34;5036939;28;20212;-72
2023/01/10 04:09:38;;;;;;;3.73;1.63;;;;;;;4.68;100.00;98228.50;5036779;28;20220;-73
2023/01/10 04:12:04;;;;;;;1.97;1.50;;;;;;;4.65;100.00;98234.13;5036410;28;20234;-73
2023/01/10 04:14:32;;;;;;;3.20;1.40;;;;;;;4.63;100.00;98236.13;5036854;28;20202;-73
2023/01/10 04:16:59;;;;;;;3.30;1.40;;;;;;;4.58;100.00;98238.47;5036411;28;20232;-72
2023/01/10 04:19:26;;;;;;;3.47;1.40;;;;;;;4.51;100.00;98238.34;5036337;28;20592;-73
2023/01/10 04:21:53;;;;;;;3.67;1.43;;;;;;;4.49;100.00;98245.63;5036374;28;20232;-73
2023/01/10 04:24:19;;;;;;;3.03;1.70;;;;;;;4.57;100.00;98242.09;5037029;28;20214;-72
2023/01/10 04:26:45;;;;;;;2.17;1.40;;;;;;;4.56;100.00;98251.78;5036614;28;20206;-72
2023/01/10 04:29:12;;;;;;;3.17;1.60;;;;;;;4.57;100.00;98257.88;5036027;28;20209;-72
2023/01/10 04:31:39;;;;;;;2.10;1.53;;;;;;;4.45;100.00;98265.38;5036142;28;20229;-72
2023/01/10 04:34:09;;;;;;;7.13;1.80;;;;;;;4.48;100.00;98261.59;5036179;28;20210;-72
2023/01/10 04:36:36;;;;;;;7.30;1.80;;;;;;;4.41;100.00;98260.63;5036233;28;20202;-72
2023/01/10 04:39:03;;;;;;;3.97;1.90;;;;;;;4.44;100.00;98273.44;5036118;28;20236;-72
2023/01/10 04:41:29;;;;;;;3.90;1.60;;;;;;;4.43;100.00;98282.34;5036133;28;20225;-72
2023/01/10 04:43:56;;;;;;;6.33;2.00;;;;;;;4.43;100.00;98296.31;5036190;28;20216;-72
2023/01/10 04:46:22;;;;;;;6.23;1.77;;;;;;;4.41;100.00;98305.38;5035907;28;20680;-72
2023/01/10 04:48:49;;;;;;;8.23;1.80;;;;;;;4.42;100.00;98309.63;5035785;28;20209;-72
2023/01/10 04:51:15;;;;;;;4.47;1.80;;;;;;;4.44;100.00;98318.19;5035709;28;20716;-72
2023/01/10 04:53:41;;;;;;;5.13;1.83;;;;;;;4.44;100.00;98326.09;5035690;28;20217;-72
2023/01/10 04:56:14;;;;;;;6.70;1.90;;;;;;;4.43;100.00;98325.25;5035932;28;20206;-72
2023/01/10 04:58:41;;;;;;;5.17;2.10;;;;;;;4.41;100.00;98337.78;5036464;28;20225;-72
2023/01/10 05:01:12;;;;;;;8.63;1.93;;;;;;;4.45;100.00;98346.16;5035280;28;20230;-72
2023/01/10 05:03:39;;;;;;;5.03;1.90;;;;;;;4.44;100.00;98341.88;5035757;28;20194;-72
2023/01/10 05:06:06;;;;;;;6.23;2.17;;;;;;;4.46;100.00;98353.88;5035270;28;20252;-72
2023/01/10 05:08:33;;;;;;;7.23;2.00;;;;;;;4.45;100.00;98351.41;5035600;28;20208;-72
2023/01/10 05:10:59;;;;;;;7.93;2.37;;;;;;;4.44;100.00;98347.97;5035136;28;20305;-73
2023/01/10 05:13:26;;;;;;;9.87;1.80;;;;;;;4.40;100.00;98364.28;5035306;28;20190;-72
2023/01/10 05:15:56;;;;;;;8.63;2.03;;;;;;;4.46;100.00;98359.16;5035520;28;20209;-72
2023/01/10 05:18:24;;;;;;;5.33;1.80;;;;;;;4.45;100.00;98368.03;5035267;28;20440;-72
2023/01/10 05:20:51;;;;;;;5.00;2.00;;;;;;;4.51;100.00;98364.72;5035250;28;20294;-72
2023/01/10 05:23:18;;;;;;;7.20;2.10;;;;;;;4.51;100.00;98361.25;5035063;28;20213;-72
2023/01/10 05:25:44;;;;;;;9.80;2.07;;;;;;;4.56;100.00;98364.22;5035098;28;20216;-72
2023/01/10 05:28:11;;;;;;;8.97;2.47;;;;;;;4.67;100.00;98382.22;5035168;28;20206;-72
2023/01/10 05:30:37;;;;;;;7.87;1.90;;;;;;;4.74;100.00;98383.19;5035213;28;20206;-72
2023/01/10 05:33:04;;;;;;;7.53;1.97;;;;;;;4.71;100.00;98375.63;5035065;28;20226;-72
2023/01/10 05:35:31;;;;;;;5.73;2.20;;;;;;;4.70;100.00;98392.44;5034951;28;20569;-72
2023/01/10 05:37:57;;;;;;;6.57;2.17;;;;;;;4.77;100.00;98393.34;5035860;28;20212;-72
2023/01/10 05:40:23;;;;;;;7.87;2.00;;;;;;;4.77;100.00;98390.72;5034957;28;20230;-73
2023/01/10 05:42:50;;;;;;;6.43;2.20;;;;;;;4.80;100.00;98406.19;5034630;28;20248;-73
2023/01/10 05:45:16;;;;;;;6.97;2.30;;;;;;;4.90;100.00;98409.41;5034618;28;20255;-73
2023/01/10 05:47:43;;;;;;;10.37;2.17;;;;;;;4.81;100.00;98406.00;5034722;28;20208;-72
2023/01/10 05:50:11;;;;;;;14.07;2.73;;;;;;;4.76;100.00;98411.00;5034800;28;20278;-73
2023/01/10 05:52:37;;;;;;;9.80;1.93;;;;;;;4.81;100.00;98410.44;5034213;28;20709;-73
2023/01/10 05:55:04;;;;;;;10.47;2.30;;;;;;;4.82;100.00;98412.09;5034319;28;20216;-72
2023/01/10 05:57:30;;;;;;;9.43;2.10;;;;;;;4.83;100.00;98413.72;5034431;28;20212;-73
2023/01/10 05:59:56;;;;;;;10.67;2.33;;;;;;;4.85;100.00;98420.47;5034265;28;20218;-73
2023/01/10 06:02:25;;;;;;;7.77;1.80;;;;;;;4.85;100.00;98417.84;5033718;28;20226;-73
2023/01/10 06:04:54;;;;;;;12.87;2.23;;;;;;;4.82;100.00;98420.00;5033823;28;20205;-73
2023/01/10 06:07:20;;;;;;;5.60;2.00;;;;;;;4.84;100.00;98418.00;5034123;28;20232;-73
2023/01/10 06:09:46;;;;;;;7.47;1.77;;;;;;;4.86;100.00;98430.03;5034836;28;20213;-73
2023/01/10 06:12:13;;;;;;;5.80;1.47;;;;;;;4.87;100.00;98438.72;5032911;28;20320;-73
2023/01/10 06:14:39;;;;;;;6.00;1.77;;;;;;;4.85;100.00;98435.47;5033662;28;20252;-73
2023/01/10 06:17:08;;;;;;;5.93;1.73;;;;;;;4.88;100.00;98441.19;5033538;28;20213;-72
2023/01/10 06:19:35;;;;;;;8.90;1.67;;;;;;;4.84;100.00;98447.00;5033785;28;20324;-73
2023/01/10 06:22:03;;;;;;;6.17;1.70;;;;;;;4.95;100.00;98450.06;5033335;28;20253;-72
2023/01/10 06:24:29;;;;;;;7.10;1.57;;;;;;;4.90;100.00;98452.38;5033323;28;20202;-73
2023/01/10 06:26:56;;;;;;;7.23;2.00;;;;;;;4.92;100.00;98452.19;5033626;28;20210;-73
2023/01/10 06:29:22;;;;;;;6.33;1.80;;;;;;;4.88;100.00;98457.00;5034210;28;20228;-73
2023/01/10 06:31:48;;;;;;;5.77;1.67;;;;;;;4.92;100.00;98471.47;5033772;28;20226;-73
2023/01/10 06:34:15;;;;;;;8.17;1.77;;;;;;;4.96;100.00;98478.03;5033603;28;20253;-73
2023/01/10 06:36:41;;;;;;;8.43;2.13;;;;;;;4.94;100.00;98489.75;5033108;28;20209;-73
2023/01/10 06:39:08;;;;;;;8.03;1.87;;;;;;;4.99;100.00;98493.50;5033372;28;20222;-73
2023/01/10 06:41:35;;;;;;;5.73;1.60;;;;;;;4.95;100.00;98497.47;5033330;28;20724;-73
2023/01/10 06:44:01;;;;;;;5.07;1.60;;;;;;;4.95;100.00;98499.28;5033203;28;20223;-73
2023/01/10 06:46:28;;;;;;;7.17;1.90;;;;;;;4.96;100.00;98503.53;5033446;28;20231;-73
2023/01/10 06:48:54;;;;;;;6.33;1.70;;;;;;;4.92;100.00;98504.88;5033469;28;20202;-73
2023/01/10 06:51:20;;;;;;;9.13;2.23;;;;;;;4.89;100.00;98502.59;5033287;28;20230;-73
2023/01/10 06:53:47;;;;;;;7.47;1.70;;;;;;;4.91;100.00;98511.16;5033452;28;20206;-73
2023/01/10 06:56:13;;;;;;;6.03;1.60;;;;;;;4.94;100.00;98513.44;5033066;28;20205;-73
2023/01/10 06:58:40;;;;;;;6.43;1.80;;;;;;;4.94;100.00;98510.81;5033354;28;20575;-73
2023/01/10 07:01:12;;;;;;;6.60;1.80;;;;;;;4.94;100.00;98522.19;5033087;28;20221;-73
2023/01/10 07:03:39;;;;;;;7.37;2.20;;;;;;;4.98;100.00;98525.28;5032871;28;20495;-73
2023/01/10 07:06:08;;;;;;;7.03;2.00;;;;;;;5.00;100.00;98526.75;5032448;28;20561;-72
2023/01/10 07:08:39;;;;;;;6.13;1.90;;;;;;;4.99;100.00;98534.81;5030142;28;20202;-73
2023/01/10 07:11:06;;;;;;;8.00;1.90;;;;;;;4.94;100.00;98545.06;5032394;28;20230;-73
2023/01/10 07:13:33;;;;;;;12.83;2.17;;;;;;;4.98;100.00;98539.25;5032991;28;20194;-73
2023/01/10 07:16:11;;;;;;;6.17;1.83;;;;;;;4.98;100.00;98549.00;5032839;28;20292;-73
2023/01/10 07:18:39;;;;;;;10.37;2.07;;;;;;;4.96;100.00;98559.69;5033002;28;20607;-73
2023/01/10 07:21:06;;;;;;;5.13;1.80;;;;;;;4.92;100.00;98565.47;5032502;28;20226;-73
2023/01/10 07:23:32;;;;;;;8.33;1.80;;;;;;;4.95;100.00;98570.41;5033001;28;20216;-73
2023/01/10 07:26:03;;;;;;;7.97;1.83;;;;;;;4.93;100.00;98580.31;5032935;28;20217;-73
2023/01/10 07:28:29;;;;;;;9.00;2.30;;;;;;;4.92;100.00;98576.84;5032572;28;20665;-73
2023/01/10 07:30:59;;;;;;;6.87;1.40;;;;;;;4.92;100.00;98571.56;5032263;28;20202;-73
2023/01/10 07:33:26;;;;;;;6.07;1.83;;;;;;;4.93;100.00;98577.69;5031043;28;20209;-73
2023/01/10 07:35:52;;;;;;;7.70;1.70;;;;;;;4.96;100.00;98574.69;5031658;28;20210;-73
2023/01/10 07:38:18;;;;;;;4.90;1.90;;;;;;;4.98;100.00;98565.59;5030487;28;20282;-73
2023/01/10 07:40:45;;;;;;;6.20;2.03;;;;;;;4.97;100.00;98578.97;5029992;28;20701;-72
2023/01/10 07:43:11;;;;;;;5.10;1.67;;;;;;;4.99;100.00;98576.97;5030389;28;20209;-73
2023/01/10 07:45:37;;;;;;;5.60;1.70;;;;;;;4.99;100.00;98592.78;5030607;28;20206;-73
2023/01/10 07:48:05;;;;;;;6.07;2.00;;;;;;;5.02;100.00;98603.81;5030706;28;20221;-72
2023/01/10 07:50:34;;;;;;;7.10;1.90;;;;;;;5.02;100.00;98616.19;5030484;28;20201;-73
2023/01/10 07:53:02;;;;;;;5.40;1.57;;;;;;;5.03;100.00;98612.53;5031643;28;20236;-73
2023/01/10 07:55:29;;;;;;;3.80;1.60;;;;;;;5.08;99.59;98624.22;5032455;28;20579;-73
2023/01/10 07:57:55;;;;;;;7.50;1.87;;;;;;;5.07;99.98;98625.19;5032695;28;20216;-73
2023/01/10 08:00:22;;;;;;;5.07;2.00;;;;;;;5.06;100.00;98633.28;5032585;28;20226;-73
2023/01/10 08:02:54;;;;;;;7.43;1.60;;;;;;;5.11;100.00;98636.25;5032726;28;20225;-73
2023/01/10 08:05:20;;;;;;;5.77;1.50;;;;;;;5.11;100.00;98644.16;5032968;28;20190;-73
2023/01/10 08:07:47;;;;;;;5.60;1.47;;;;;;;5.16;100.00;98639.19;5032799;28;20293;-73
2023/01/10 08:10:13;;;;;;;4.27;1.50;;;;;;;5.13;100.00;98636.88;5032634;28;20202;-73
2023/01/10 08:12:39;;;;;;;6.97;1.67;;;;;;;5.20;100.00;98640.47;5032007;28;20234;-73
2023/01/10 08:15:06;;;;;;;4.30;1.47;;;;;;;5.17;100.00;98641.66;5032266;28;20214;-73
2023/01/10 08:17:34;;;;;;;6.20;1.50;;;;;;;5.11;100.00;98639.66;5032294;28;20210;-73
2023/01/10 08:20:00;;;;;;;6.50;1.90;;;;;;;5.14;100.00;98643.78;5032508;28;20252;-73
2023/01/10 08:22:27;;;;;;;7.50;1.80;;;;;;;5.17;100.00;98648.72;5033038;28;20237;-73
2023/01/10 08:24:53;;;;;;;6.13;2.03;;;;;;;5.15;100.00;98654.16;5032409;28;20210;-73
2023/01/10 08:27:20;;;;;;;4.27;1.60;;;;;;;5.16;100.00;98662.91;5032239;28;20214;-73
2023/01/10 08:29:46;;;;;;;4.37;1.30;;;;;;;5.24;100.00;98657.59;5032793;28;20202;-73
2023/01/10 08:32:13;;;;;;;7.87;1.77;;;;;;;5.22;100.00;98668.31;5032422;28;20222;-73
2023/01/10 08:34:39;;;;;;;6.23;1.60;;;;;;;5.29;100.00;98679.00;5032589;28;20202;-73
2023/01/10 08:37:05;;;;;;;4.70;2.00;;;;;;;5.31;99.37;98679.63;5035535;28;20209;-73
2023/01/10 08:39:34;;;;;;;5.57;1.87;;;;;;;5.30;100.00;98685.91;5035343;28;20708;-73
2023/01/10 08:42:00;;;;;;;5.03;1.77;;;;;;;5.26;100.00;98679.34;5035693;28;20256;-73
2023/01/10 08:44:26;;;;;;;6.77;1.90;;;;;;;5.36;100.00;98675.50;5035980;28;20297;-73
2023/01/10 08:46:53;;;;;;;4.93;1.80;;;;;;;5.50;99.21;98692.41;5036528;28;20205;-73
2023/01/10 08:49:19;;;;;;;12.00;2.00;;;;;;;5.46;100.00;98697.22;5035591;28;20212;-73
2023/01/10 08:51:45;;;;;;;5.53;1.83;;;;;;;5.47;100.00;98692.78;5035540;28;20230;-73
2023/01/10 08:54:12;;;;;;;7.00;1.50;;;;;;;5.60;100.00;98693.84;5035637;28;20626;-73
2023/01/10 08:56:39;;;;;;;6.67;1.70;;;;;;;5.46;100.00;98681.38;5035891;28;20547;-73
2023/01/10 08:59:05;;;;;;;7.10;1.77;;;;;;;5.55;98.76;98690.91;5035638;28;20205;-73
2023/01/10 09:01:32;;;;;;;5.93;1.47;;;;;;;5.61;99.49;98702.59;5035708;28;20315;-73
2023/01/10 09:03:58;;;;;;;5.63;1.77;;;;;;;5.59;99.20;98713.31;5035472;28;20212;-73
2023/01/10 09:06:25;;;;;;;6.63;1.90;;;;;;;5.61;100.00;98703.41;5035736;28;20202;-73
2023/01/10 09:08:51;;;;;;;6.30;1.43;;;;;;;5.68;100.00;98712.28;5035542;28;20214;-73
2023/01/10 09:11:18;;;;;;;7.80;1.73;;;;;;;5.67;99.58;98709.81;5035410;28;20229;-73
2023/01/10 09:13:44;;;;;;;6.27;1.80;;;;;;;5.71;100.00;98717.22;5035389;28;20194;-73
2023/01/10 09:16:10;;;;;;;7.97;2.20;;;;;;;5.59;100.00;98721.22;5035350;28;20213;-73
2023/01/10 09:18:37;;;;;;;6.77;2.03;;;;;;;5.64;100.00;98726.81;5034885;28;20571;-73
2023/01/10 09:21:03;;;;;;;4.97;1.60;;;;;;;5.80;100.00;98728.53;5034856;28;20324;-73
2023/01/10 09:23:29;;;;;;;7.03;1.90;;;;;;;5.68;99.62;98724.63;5034958;28;20209;-73
2023/01/10 09:25:56;;;;;;;4.47;1.57;;;;;;;5.77;100.00;98727.06;5035016;28;20209;-73
2023/01/10 09:28:23;;;;;;;6.13;1.57;;;;;;;5.78;99.18;98730.53;5034894;28;20571;-73
2023/01/10 09:30:50;;;;;;;6.77;1.73;;;;;;;5.79;100.00;98732.19;5035373;28;20263;-73
2023/01/10 09:33:17;;;;;;;5.43;1.73;;;;;;;5.83;100.00;98742.25;5035106;28;20217;-73
2023/01/10 09:35:44;;;;;;;7.83;2.00;;;;;;;5.84;100.00;98746.50;5034874;28;20205;-73
2023/01/10 09:38:17;;;;;;;5.77;2.00;;;;;;;5.93;100.00;98748.13;5034856;28;20292;-73
2023/01/10 09:41:08;;;;;;;5.30;1.83;;;;;;;5.79;100.00;98750.66;5035038;28;20206;-73
2023/01/10 09:43:45;;;;;;;6.47;1.70;;;;;;;5.72;100.00;98750.53;5034756;28;20200;-73
2023/01/10 09:46:20;;;;;;;5.40;1.47;;;;;;;5.75;100.00;98752.78;5034748;28;20190;-73
2023/01/10 09:49:28;;;;;;;8.67;1.83;;;;;;;5.59;100.00;98754.69;5034904;28;20196;-73
2023/01/10 09:51:57;;;;;;;6.67;1.63;;;;;;;5.74;100.00;98761.72;5034761;28;20225;-73
2023/01/10 09:54:28;;;;;;;4.10;1.50;;;;;;;5.85;100.00;98766.66;5034610;28;20205;-73
2023/01/10 09:56:55;;;;;;;5.93;1.90;;;;;;;5.86;100.00;98772.72;5033445;28;20200;-72
2023/01/10 09:59:30;;;;;;;4.70;1.97;;;;;;;5.85;100.00;98771.09;5034372;28;20209;-73
2023/01/10 10:02:14;;;;;;;9.70;2.03;;;;;;;5.98;100.00;98776.66;5034482;28;20222;-73
2023/01/10 10:04:41;;;;;;;5.83;2.27;;;;;;;6.04;100.00;98773.31;5033439;28;20194;-73
2023/01/10 10:07:16;;;;;;;9.10;2.07;;;;;;;5.92;100.00;98772.06;5034367;28;20260;-73
2023/01/10 10:09:43;;;;;;;5.23;1.90;;;;;;;6.04;100.00;98770.66;5034268;28;20197;-73
2023/01/10 10:12:18;;;;;;;6.33;1.83;;;;;;;5.87;100.00;98767.28;5033761;28;20233;-73
2023/01/10 10:14:51;;;;;;;10.63;2.07;;;;;;;6.10;100.00;98757.59;5033881;28;20543;-73
2023/01/10 10:17:42;;;;;;;5.87;1.80;;;;;;;6.05;100.00;98753.84;5034185;28;20201;-73
2023/01/10 10:20:32;;;;;;;5.83;2.00;;;;;;;6.10;100.00;98752.31;5033816;28;20214;-73
2023/01/10 10:23:15;;;;;;;3.53;1.53;;;;;;;6.15;100.00;98754.47;5034103;28;20230;-73
2023/01/10 10:25:54;;;;;;;6.03;1.87;;;;;;;6.21;100.00;98756.38;5034159;28;20201;-73
2023/01/10 10:28:47;;;;;;;6.17;2.13;;;;;;;6.06;100.00;98747.56;5034060;28;20208;-73
2023/01/10 10:31:32;;;;;;;6.40;2.03;;;;;;;6.08;100.00;98761.41;5033936;28;20233;-73
2023/01/10 10:34:26;;;;;;;3.40;1.50;;;;;;;6.19;100.00;98766.31;5034033;28;20206;-73
2023/01/10 10:37:21;;;;;;;5.47;1.63;;;;;;;6.15;100.00;98765.03;5032463;28;20244;-73
2023/01/10 10:39:58;;;;;;;7.93;1.73;;;;;;;6.22;100.00;98768.59;5031919;28;20205;-73
2023/01/10 10:42:30;;;;;;;5.07;2.00;;;;;;;6.29;100.00;98772.19;5032484;28;20225;-73
2023/01/10 10:45:01;;;;;;;7.70;1.93;;;;;;;6.31;100.00;98764.91;5033968;28;20214;-73
2023/01/10 10:47:32;;;;;;;5.87;1.50;;;;;;;6.32;100.00;98754.16;5033769;28;20202;-72
2023/01/10 10:50:14;;;;;;;6.30;1.87;;;;;;;6.60;100.00;98749.19;5032539;28;20187;-73
2023/01/10 10:52:42;;;;;;;4.60;1.53;;;;;;;6.78;100.00;98752.34;5033083;28;20256;-73
2023/01/10 10:55:15;;;;;;;6.53;1.67;;;;;;;6.62;96.27;98752.47;5033394;28;20662;-73
2023/01/10 10:57:45;;;;;;;4.70;1.87;;;;;;;6.63;98.48;98743.53;5033742;28;20543;-73
2023/01/10 11:00:17;;;;;;;7.97;2.27;;;;;;;6.59;100.00;98750.16;5033035;28;20594;-73
2023/01/10 11:02:50;;;;;;;3.10;1.60;;;;;;;6.40;98.76;98756.75;5032042;28;20697;-73
2023/01/10 11:05:28;;;;;;;5.80;1.77;;;;;;;6.27;99.82;98759.16;5016325;28;20194;-72
2023/01/10 11:08:00;;;;;;;8.97;2.33;;;;;;;6.43;99.94;98764.31;5031967;28;20196;-73
2023/01/10 11:10:37;;;;;;;7.17;2.70;;;;;;;6.49;100.00;98762.81;5033541;28;20622;-73
2023/01/10 11:13:20;;;;;;;5.73;1.90;;;;;;;6.49;99.01;98776.84;5032948;28;20241;-73
2023/01/10 11:15:49;;;;;;;4.97;2.03;;;;;;;6.30;99.58;98765.91;5033247;28;20194;-73
2023/01/10 11:18:20;;;;;;;4.13;2.03;;;;;;;6.22;100.00;98772.06;5033299;28;20213;-73
2023/01/10 11:20:50;;;;;;;5.00;2.30;;;;;;;6.27;100.00;98771.53;5033180;28;20283;-73
2023/01/10 11:23:41;;;;;;;5.17;2.00;;;;;;;6.28;100.00;98762.59;5033426;28;20194;-72
2023/01/10 11:26:23;;;;;;;7.17;2.40;;;;;;;6.36;100.00;98765.19;5033293;28;20637;-73
2023/01/10 11:29:12;;;;;;;7.40;2.67;;;;;;;6.47;100.00;98773.53;5033118;28;20205;-73
2023/01/10 11:31:38;;;;;;;5.47;1.90;;;;;;;6.65;100.00;98766.13;5022447;28;20222;-73
2023/01/10 11:34:22;;;;;;;5.70;2.00;;;;;;;6.65;99.70;98771.44;5032545;28;20562;-73
2023/01/10 11:36:55;;;;;;;9.07;2.37;;;;;;;6.90;100.00;98777.34;5017130;28;20200;-73
2023/01/10 11:39:22;;;;;;;3.50;1.87;;;;;;;6.66;99.24;98772.25;5032232;28;20300;-73
2023/01/10 11:41:51;;;;;;;4.63;1.93;;;;;;;6.62;99.63;98768.31;5032641;28;20234;-72
2023/01/10 11:44:26;;;;;;;4.90;2.03;;;;;;;6.75;97.23;98765.91;5032535;28;20360;-73
2023/01/10 11:46:59;;;;;;;7.60;2.00;;;;;;;6.73;95.11;98770.53;5032462;28;20216;-73
2023/01/10 11:49:25;;;;;;;8.03;1.97;;;;;;;6.76;98.40;98763.09;5032640;28;20669;-73
2023/01/10 11:52:00;;;;;;;5.57;1.97;;;;;;;6.91;97.45;98760.47;5032861;28;20224;-73
2023/01/10 11:54:28;;;;;;;4.67;1.90;;;;;;;6.88;97.22;98758.22;5032685;28;20200;-73
2023/01/10 11:57:00;;;;;;;4.53;1.60;;;;;;;6.87;97.21;98759.22;5033015;28;20206;-73